Main page
METAR-TAF:

METAR-TAF

Airports :

Nebraska City Municipal Airport

Nebraska City, Nebraska, United States

latitude: 40-36N, longitude: 095-51W, elevation: 1161 ft

Current weather observation

The report was made 17 minutes ago, at 07:35 UTC
Wind 8 mph from the West/Northwest
Temperature 34°F
Humidity 69%
Pressure 30.33 in. Hg
Visibility: 10 miles
Clear sky

METAR: KAFK 210735Z AUTO 30007KT 10SM CLR 01/M04 A3033 RMK AO2 T00141040

Time: 02:52 (07:52 UTC)


TAF: missing

Weather observations and forecasts of more than 4000 airports (METAR and TAF reports).

The available stations are represented by yellow and red dots on the map.

Hover mouse over dot to see the name of the station.

Then click to see weather observations and forecasts.

To change the map : click on the green buttons with a black cross to zoom in, on the green button with a dash to zoom out, or on the green arrows for adjacent maps.


METAR-TAF: